Time;durP1;ratioP1;P1;durP2;ratioP2;P2;SDS_P1;SDS_P2;PMS_P1;PMS_P2;Temp;Humidity;BMP_temperature;BMP_pressure;BME280_temperature;BME280_humidity;BME280_pressure;Samples;Min_cycle;Max_cycle;Signal;HPM_P1;HPM_P2
2022/10/07 00:01:22;;;;;;;31.70;18.00;;;;;;;29.30;72.27;100899.91;5020521;28;70316;-37
2022/10/07 00:03:53;;;;;;;37.45;17.17;;;;;;;29.36;73.46;100912.59;5020789;28;65158;-37
2022/10/07 00:06:23;;;;;;;38.10;16.63;;;;;;;29.39;72.91;100911.31;5020772;28;70136;-38
2022/10/07 00:08:54;;;;;;;27.52;16.98;;;;;;;29.44;74.04;100918.81;5021788;28;65965;-37
2022/10/07 00:11:31;;;;;;;25.05;15.05;;;;;;;29.38;73.76;100905.09;5022657;28;70512;-37
2022/10/07 00:14:06;;;;;;;28.55;15.63;;;;;;;29.47;73.55;100934.59;5019409;28;66192;-37
2022/10/07 00:16:40;;;;;;;23.70;15.07;;;;;;;29.49;74.15;100924.41;5019845;28;70423;-37
2022/10/07 00:19:12;;;;;;;28.58;14.60;;;;;;;29.51;73.17;100933.16;5022606;28;66213;-37
2022/10/07 00:21:43;;;;;;;22.58;12.52;;;;;;;29.53;74.48;100936.44;5020492;28;70392;-37
2022/10/07 00:24:17;;;;;;;29.70;13.18;;;;;;;29.65;70.09;100937.53;5021138;28;66058;-39
2022/10/07 00:26:49;;;;;;;16.00;10.57;;;;;;;29.66;68.97;100944.59;5018467;28;70786;-36
2022/10/07 00:29:25;;;;;;;20.35;10.30;;;;;;;29.70;67.89;100942.28;5017967;28;66550;-36
2022/10/07 00:31:55;;;;;;;19.17;10.27;;;;;;;29.72;67.87;100943.72;5021432;28;70055;-36
2022/10/07 00:34:27;;;;;;;12.60;10.00;;;;;;;29.68;67.39;100936.28;5020982;28;66353;-36
2022/10/07 00:36:58;;;;;;;22.05;10.57;;;;;;;29.77;66.95;100954.75;5021676;28;70131;-36
2022/10/07 00:39:29;;;;;;;15.23;9.95;;;;;;;29.77;67.55;100953.94;5020013;28;66294;-37
2022/10/07 00:42:01;;;;;;;19.33;9.90;;;;;;;29.75;66.78;100954.13;5020572;28;70151;-36
2022/10/07 00:44:35;;;;;;;13.13;9.88;;;;;;;29.80;66.92;100950.78;5017380;28;66383;-36
2022/10/07 00:47:31;;;;;;;13.05;10.10;;;;;;;29.43;66.60;100922.56;5019149;28;70171;-38
2022/10/07 00:50:21;;;;;;;10.77;9.48;;;;;;;29.46;66.86;100924.84;5018611;28;66128;-35
2022/10/07 00:53:01;;;;;;;14.07;10.00;;;;;;;29.37;66.74;100895.31;4990969;28;70629;-35
2022/10/07 00:55:34;;;;;;;10.93;9.77;;;;;;;29.86;66.20;100976.16;5017025;28;65572;-36
2022/10/07 00:58:08;;;;;;;12.23;9.80;;;;;;;29.90;65.91;100990.94;5019477;28;70362;-36
2022/10/07 01:00:43;;;;;;;11.27;10.00;;;;;;;29.92;66.38;101005.06;5000700;28;66673;-36
2022/10/07 01:03:17;;;;;;;11.05;9.95;;;;;;;29.93;66.07;100995.91;5002984;28;69498;-36
2022/10/07 01:05:50;;;;;;;12.07;9.68;;;;;;;29.95;65.75;101015.44;5008399;28;65960;-37
2022/10/07 01:08:22;;;;;;;12.88;9.95;;;;;;;29.97;65.56;101016.91;4999645;28;69377;-36
2022/10/07 01:11:17;;;;;;;10.70;9.30;;;;;;;29.98;65.90;101012.34;5019540;28;65247;-36
2022/10/07 01:14:10;;;;;;;10.02;9.15;;;;;;;29.89;66.08;101019.00;5016347;28;70485;-36
2022/10/07 01:17:17;;;;;;;13.23;10.02;;;;;;;29.49;65.91;100932.53;5000515;28;66895;-37
2022/10/07 01:19:57;;;;;;;14.63;9.25;;;;;;;30.00;65.37;101016.47;5017300;28;69670;-45
2022/10/07 01:22:56;;;;;;;12.20;9.05;;;;;;;29.48;65.09;100920.06;5016216;28;65699;-36
2022/10/07 01:25:45;;;;;;;12.05;8.93;;;;;;;29.46;65.39;100932.94;5015030;28;69963;-36
2022/10/07 01:28:40;;;;;;;10.40;8.85;;;;;;;29.98;65.08;101006.94;5018186;28;66689;-36
2022/10/07 01:31:16;;;;;;;9.57;8.57;;;;;;;29.78;65.17;100974.50;5014998;28;70019;-36
2022/10/07 01:34:00;;;;;;;10.27;9.25;;;;;;;30.10;65.42;101021.47;4998865;28;66796;-36
2022/10/07 01:36:35;;;;;;;10.20;9.15;;;;;;;30.13;65.46;101031.88;5016190;28;70326;-36
2022/10/07 01:39:16;;;;;;;11.85;9.13;;;;;;;30.04;65.23;101014.22;5017945;28;66552;-36
2022/10/07 01:41:50;;;;;;;9.77;8.70;;;;;;;29.65;65.12;100942.94;5014919;28;70064;-36
2022/10/07 01:44:20;;;;;;;10.60;8.90;;;;;;;30.19;64.92;101022.91;5016872;28;66248;-37
2022/10/07 01:46:57;;;;;;;8.80;8.15;;;;;;;30.20;65.10;101029.13;5016697;28;69945;-36
2022/10/07 01:49:36;;;;;;;11.48;9.30;;;;;;;30.20;65.08;101024.56;5017622;28;66002;-36
2022/10/07 01:52:22;;;;;;;9.40;8.52;;;;;;;30.13;64.72;101010.22;4999806;28;69475;-36
2022/10/07 01:55:14;;;;;;;15.65;9.38;;;;;;;30.20;64.58;101021.88;5019398;28;66562;-35
2022/10/07 01:57:52;;;;;;;9.18;8.38;;;;;;;29.74;64.83;100936.25;5007048;28;70344;-36
2022/10/07 02:00:44;;;;;;;10.20;8.73;;;;;;;30.29;64.57;101014.38;5001933;28;66629;-36
2022/10/07 02:03:21;;;;;;;8.95;8.15;;;;;;;30.28;64.95;101002.72;5017739;28;70331;-36
2022/10/07 02:06:09;;;;;;;10.85;8.02;;;;;;;29.71;64.50;100923.16;5007455;28;66310;-36
2022/10/07 02:08:54;;;;;;;9.48;8.52;;;;;;;29.93;64.83;100937.25;4997760;28;69285;-36
2022/10/07 02:11:36;;;;;;;10.38;8.25;;;;;;;29.95;64.55;100920.78;5009389;28;65189;-36
2022/10/07 02:14:22;;;;;;;12.88;8.73;;;;;;;29.71;64.11;100887.19;5000657;28;70203;-36
2022/10/07 02:17:09;;;;;;;8.73;7.90;;;;;;;30.35;64.27;100988.34;5016241;28;65691;-37
2022/10/07 02:19:52;;;;;;;9.10;8.35;;;;;;;30.38;64.01;100979.78;5001797;28;69630;-36
2022/10/07 02:22:34;;;;;;;9.18;8.32;;;;;;;30.46;64.11;100990.38;5017466;28;66437;-37
2022/10/07 02:25:06;;;;;;;8.68;7.97;;;;;;;30.47;64.37;100983.91;5015152;28;70082;-36
2022/10/07 02:27:39;;;;;;;8.70;7.95;;;;;;;30.51;63.84;100985.16;5014077;28;66582;-36
2022/10/07 02:30:15;;;;;;;8.70;7.88;;;;;;;30.13;64.12;100922.81;5016413;28;70065;-36
2022/10/07 02:32:54;;;;;;;8.35;7.72;;;;;;;30.56;63.93;101001.56;5015263;28;67053;-36
2022/10/07 02:35:26;;;;;;;8.25;7.45;;;;;;;30.58;63.94;100993.22;5014916;28;69854;-36
2022/10/07 02:38:04;;;;;;;8.30;7.50;;;;;;;30.55;63.80;100986.38;5016766;28;65203;-36
2022/10/07 02:40:44;;;;;;;8.20;7.55;;;;;;;30.60;63.98;100994.69;4998189;28;70409;-36
2022/10/07 02:43:41;;;;;;;8.35;7.70;;;;;;;30.26;63.48;100942.56;5016995;28;66109;-36
2022/10/07 02:46:23;;;;;;;9.02;8.15;;;;;;;30.18;63.63;100923.84;5012552;28;69803;-36
2022/10/07 02:49:08;;;;;;;9.30;7.90;;;;;;;30.63;64.07;100988.81;5008447;28;66265;-36
2022/10/07 02:51:47;;;;;;;8.95;7.97;;;;;;;30.21;63.34;100904.47;5015895;28;69321;-36
2022/10/07 02:54:23;;;;;;;8.35;7.60;;;;;;;30.76;63.33;100992.50;5016123;28;65975;-37
2022/10/07 02:57:16;;;;;;;8.60;7.78;;;;;;;30.69;63.36;100965.47;4998395;28;69357;-38
2022/10/07 02:59:50;;;;;;;8.60;7.88;;;;;;;30.25;63.18;100897.59;5013399;28;66557;-37
2022/10/07 03:03:00;;;;;;;8.10;7.35;;;;;;;30.55;63.23;100936.81;5012732;28;70064;-37
2022/10/07 03:05:54;;;;;;;8.50;7.80;;;;;;;30.82;63.59;100970.03;5000620;28;65928;-36
2022/10/07 03:08:25;;;;;;;8.07;7.35;;;;;;;30.89;63.14;100970.78;4982742;28;69349;-36
2022/10/07 03:10:57;;;;;;;7.80;7.25;;;;;;;30.91;62.94;100971.41;5013569;28;66334;-36
2022/10/07 03:13:30;;;;;;;7.97;7.38;;;;;;;30.91;63.32;100969.53;4996358;28;70066;-37
2022/10/07 03:16:08;;;;;;;7.88;7.28;;;;;;;30.94;63.24;100960.97;5016270;28;66156;-36
2022/10/07 03:18:40;;;;;;;7.97;7.47;;;;;;;30.91;63.15;100957.88;5023116;28;71209;-37
2022/10/07 03:21:27;;;;;;;8.70;7.65;;;;;;;30.98;62.95;100947.81;5014865;28;66741;-37
2022/10/07 03:24:03;;;;;;;8.30;7.53;;;;;;;30.88;63.21;100934.75;5012627;28;70694;-37
2022/10/07 03:26:43;;;;;;;7.15;6.65;;;;;;;31.02;62.89;100949.03;4998125;28;66035;-36
2022/10/07 03:29:21;;;;;;;8.73;8.13;;;;;;;30.98;62.89;100942.41;5015715;28;69919;-36
2022/10/07 03:31:54;;;;;;;7.35;6.85;;;;;;;31.04;63.04;100941.53;5016035;28;66086;-37
2022/10/07 03:34:26;;;;;;;7.88;7.28;;;;;;;31.07;63.04;100942.97;5017076;28;69963;-37
2022/10/07 03:36:57;;;;;;;9.07;8.03;;;;;;;31.08;62.76;100948.16;5016425;28;66039;-36
2022/10/07 03:39:29;;;;;;;8.35;7.53;;;;;;;31.10;62.88;100935.22;5014544;28;70669;-37
2022/10/07 03:42:01;;;;;;;8.27;7.72;;;;;;;31.12;62.57;100927.72;5000120;28;65101;-36
2022/10/07 03:44:34;;;;;;;8.25;7.65;;;;;;;31.15;63.16;100916.44;4997612;28;70563;-36
2022/10/07 03:47:07;;;;;;;7.82;7.15;;;;;;;31.16;62.70;100917.25;5015141;28;66039;-36
2022/10/07 03:49:41;;;;;;;7.55;6.95;;;;;;;31.19;62.76;100905.13;5001965;28;69343;-36
2022/10/07 03:52:12;;;;;;;;;;;;;;;30.84;63.66;100897.47;4999452;28;65873;-36
2022/10/07 03:54:43;;;;;;;7.47;6.88;;;;;;;31.15;63.00;100889.31;5015132;28;70508;-36
2022/10/07 04:00:05;;;;;;;7.90;7.20;;;;;;;31.24;62.90;100878.22;5014788;28;69246;-36
2022/10/07 04:02:42;;;;;;;7.43;6.93;;;;;;;31.22;62.85;100856.72;5005305;28;65605;-38
2022/10/07 04:05:18;;;;;;;8.13;7.13;;;;;;;31.28;63.02;100865.84;4982781;28;69262;-36
2022/10/07 04:07:51;;;;;;;8.10;7.50;;;;;;;31.31;62.49;100846.44;4999542;28;65491;-36
2022/10/07 04:10:23;;;;;;;7.15;6.50;;;;;;;31.21;62.31;100825.28;5015676;28;70727;-36
2022/10/07 04:12:54;;;;;;;7.95;7.15;;;;;;;31.33;62.80;100836.19;5004915;28;66340;-36
2022/10/07 04:15:26;;;;;;;6.93;6.43;;;;;;;31.30;62.32;100820.41;5010451;28;69977;-36
2022/10/07 04:17:58;;;;;;;7.40;6.80;;;;;;;31.30;62.37;100821.22;4999252;28;66152;-36
2022/10/07 04:20:31;;;;;;;7.20;6.65;;;;;;;31.41;62.11;100835.13;5012340;28;70339;-36
2022/10/07 04:23:03;;;;;;;6.63;6.05;;;;;;;31.43;62.53;100830.31;5011589;28;66357;-36
2022/10/07 04:25:35;;;;;;;7.32;6.82;;;;;;;31.44;62.54;100829.25;5016905;28;70205;-36
2022/10/07 04:28:18;;;;;;;7.20;6.70;;;;;;;31.40;62.24;100826.16;5002109;28;65925;-36
2022/10/07 04:30:53;;;;;;;8.05;7.00;;;;;;;31.44;61.83;100823.81;5006123;28;70066;-38
2022/10/07 04:33:32;;;;;;;6.55;6.05;;;;;;;31.55;61.83;100832.03;5001537;28;65597;-37
2022/10/07 04:36:05;;;;;;;7.05;6.45;;;;;;;31.44;62.11;100805.66;5017692;28;69967;-37
2022/10/07 04:38:43;;;;;;;6.50;5.88;;;;;;;31.58;61.70;100823.44;5000637;28;65313;-37
2022/10/07 04:41:15;;;;;;;9.00;6.32;;;;;;;31.60;61.54;100813.19;4996411;28;70523;-37
2022/10/07 04:43:50;;;;;;;6.07;5.68;;;;;;;31.12;61.30;100727.22;5016779;28;65264;-36
2022/10/07 04:46:29;;;;;;;7.03;6.38;;;;;;;31.61;61.61;100811.31;5017580;28;69700;-36
2022/10/07 04:49:10;;;;;;;6.70;6.15;;;;;;;31.53;61.68;100798.88;5017283;28;65945;-36
2022/10/07 04:51:41;;;;;;;5.70;5.18;;;;;;;31.66;61.60;100807.94;5002562;28;69300;-37
2022/10/07 04:54:13;;;;;;;;;;;;;;;31.33;61.96;100799.06;5017820;28;65840;-37
2022/10/07 04:56:49;;;;;;;10.88;5.50;;;;;;;31.63;61.16;100797.53;5017346;28;69844;-36
2022/10/07 04:59:24;;;;;;;6.45;5.80;;;;;;;31.72;61.11;100801.59;5016847;28;65210;-36
2022/10/07 05:02:00;;;;;;;6.25;5.75;;;;;;;31.74;61.24;100794.06;5002702;28;70462;-35
2022/10/07 05:04:34;;;;;;;7.13;6.43;;;;;;;31.64;61.00;100758.50;5001436;28;66272;-36
2022/10/07 05:07:07;;;;;;;6.10;5.70;;;;;;;31.76;61.14;100781.06;5001283;28;70324;-37
2022/10/07 05:09:38;;;;;;;7.07;6.38;;;;;;;31.77;60.96;100766.47;4999144;28;65477;-37
2022/10/07 05:12:10;;;;;;;5.63;5.13;;;;;;;31.75;60.95;100757.72;4980716;28;70059;-37
2022/10/07 05:14:41;;;;;;;5.90;5.57;;;;;;;31.81;61.14;100770.38;5013053;28;65652;-37
2022/10/07 05:17:15;;;;;;;6.15;5.55;;;;;;;31.86;61.29;100758.84;5001414;28;70157;-37
2022/10/07 05:19:47;;;;;;;6.80;5.65;;;;;;;31.88;60.93;100748.59;4998975;28;66632;-37
2022/10/07 05:22:18;;;;;;;6.43;5.82;;;;;;;31.88;60.89;100729.63;5017872;28;69877;-36
2022/10/07 05:24:49;;;;;;;6.00;5.50;;;;;;;31.90;60.88;100728.31;5017543;28;65844;-37
2022/10/07 05:27:21;;;;;;;6.30;5.80;;;;;;;31.93;60.61;100727.03;5017906;28;70700;-37
2022/10/07 05:29:54;;;;;;;9.20;5.07;;;;;;;31.95;60.75;100731.19;5017655;28;66513;-37
2022/10/07 05:32:26;;;;;;;6.07;5.67;;;;;;;31.96;60.71;100724.72;5018606;28;70102;-36
2022/10/07 05:34:57;;;;;;;6.22;5.63;;;;;;;31.98;60.84;100719.88;5001843;28;65989;-37
2022/10/07 05:37:28;;;;;;;6.53;5.85;;;;;;;31.86;60.44;100694.56;5017569;28;71366;-37
2022/10/07 05:39:59;;;;;;;8.07;5.15;;;;;;;32.02;60.75;100721.06;5004503;28;65965;-37
2022/10/07 05:42:30;;;;;;;5.80;5.40;;;;;;;32.04;60.40;100716.25;5030396;28;69803;-36
2022/10/07 05:45:03;;;;;;;5.70;5.18;;;;;;;31.99;60.52;100701.72;5017892;28;66724;-36
2022/10/07 05:47:35;;;;;;;5.57;5.13;;;;;;;32.10;60.27;100710.94;4999718;28;69281;-37
2022/10/07 05:50:07;;;;;;;5.73;5.23;;;;;;;32.11;60.36;100701.75;5003421;28;66474;-37
2022/10/07 05:52:39;;;;;;;5.82;5.38;;;;;;;32.10;60.19;100692.78;5012633;28;69447;-36
2022/10/07 05:55:13;;;;;;;7.00;5.13;;;;;;;32.15;60.07;100698.34;5019284;28;43220;-36
2022/10/07 05:57:44;;;;;;;5.33;4.90;;;;;;;32.17;60.08;100685.34;5002368;28;70309;-36
2022/10/07 06:00:17;;;;;;;5.88;4.72;;;;;;;32.21;60.13;100685.72;5013727;28;66693;-38
2022/10/07 06:02:51;;;;;;;5.65;5.15;;;;;;;32.22;60.06;100674.63;4985162;28;70206;-36
2022/10/07 06:05:23;;;;;;;5.60;5.10;;;;;;;32.24;60.27;100668.97;5015026;28;65521;-37
2022/10/07 06:07:54;;;;;;;;;;;;;;;31.95;60.82;100668.78;4998870;28;70185;-36
2022/10/07 06:13:15;;;;;;;5.35;4.85;;;;;;;32.22;59.96;100633.09;4998302;28;70265;-36
2022/10/07 06:15:46;;;;;;;5.50;5.00;;;;;;;32.32;59.88;100637.91;5018648;28;66266;-36
2022/10/07 06:18:19;;;;;;;5.78;5.38;;;;;;;32.36;59.74;100639.94;5015967;28;69406;-37
2022/10/07 06:21:00;;;;;;;5.40;4.90;;;;;;;32.33;59.53;100626.81;5012679;28;66627;-37
2022/10/07 06:23:32;;;;;;;;;;;;;;;32.10;60.39;100621.41;5000351;28;70222;-36
2022/10/07 06:26:09;;;;;;;6.03;4.97;;;;;;;31.82;59.65;100525.22;5016442;28;66761;-36
2022/10/07 06:28:41;;;;;;;5.20;4.90;;;;;;;32.05;59.51;100552.38;4999710;28;69536;-38
2022/10/07 06:31:15;;;;;;;7.10;4.72;;;;;;;32.51;59.69;100622.34;5013752;28;66278;-37
2022/10/07 06:33:46;;;;;;;6.90;5.03;;;;;;;32.54;59.62;100608.31;5000429;28;69783;-36
2022/10/07 06:36:18;;;;;;;8.27;5.07;;;;;;;32.57;59.65;100588.81;5017751;28;65425;-36
2022/10/07 06:38:54;;;;;;;5.63;5.13;;;;;;;32.54;59.31;100564.84;4998268;28;69975;-37
2022/10/07 06:41:31;;;;;;;4.88;4.40;;;;;;;32.61;59.51;100566.38;5001302;28;67154;-36
2022/10/07 06:44:19;;;;;;;5.55;5.07;;;;;;;32.64;59.18;100565.91;5014305;28;70578;-37
2022/10/07 06:46:52;;;;;;;5.20;4.80;;;;;;;32.67;59.25;100580.88;5007947;28;66154;-37
2022/10/07 06:49:23;;;;;;;5.53;5.05;;;;;;;32.66;59.23;100574.66;4982518;28;70391;-37
2022/10/07 06:51:55;;;;;;;4.55;4.25;;;;;;;32.68;59.22;100575.22;5016511;28;66128;-36
2022/10/07 06:54:26;;;;;;;6.85;4.78;;;;;;;32.73;59.09;100579.94;4981319;28;69052;-37
2022/10/07 06:56:57;;;;;;;6.43;5.20;;;;;;;32.75;59.10;100577.81;5011499;28;66084;-36
2022/10/07 06:59:29;;;;;;;;;;;;;;;32.51;59.68;100587.06;5017521;28;70494;-35
2022/10/07 07:02:06;;;;;;;5.38;4.85;;;;;;;32.69;59.10;100581.50;5015958;28;66484;-36
2022/10/07 07:04:37;;;;;;;5.70;5.00;;;;;;;32.82;59.09;100593.94;4997950;28;70301;-36
2022/10/07 07:07:09;;;;;;;6.95;4.93;;;;;;;32.84;58.79;100599.97;5016587;28;66203;-36
2022/10/07 07:09:40;;;;;;;11.40;4.95;;;;;;;32.80;58.95;100629.53;5017504;28;70537;-36
2022/10/07 07:12:13;;;;;;;7.03;5.18;;;;;;;32.87;58.85;100660.09;5015513;28;66322;-36
2022/10/07 07:14:44;;;;;;;5.93;4.85;;;;;;;32.88;58.70;100682.66;4999458;28;70520;-37
2022/10/07 07:17:19;;;;;;;23.55;5.82;;;;;;;32.61;59.03;100631.56;4992711;28;65723;-36
2022/10/07 07:19:50;;;;;;;17.58;5.22;;;;;;;32.91;58.80;100674.84;5017030;28;69131;-36
2022/10/07 07:22:21;;;;;;;19.58;5.75;;;;;;;32.91;59.00;100661.28;5016296;28;66274;-37
2022/10/07 07:24:52;;;;;;;28.10;5.47;;;;;;;32.62;59.08;100594.34;5014584;28;69608;-37
2022/10/07 07:27:24;;;;;;;18.33;4.67;;;;;;;32.90;59.14;100618.88;4999294;28;66435;-36
2022/10/07 07:29:55;;;;;;;15.57;5.80;;;;;;;32.90;59.56;100613.44;5016577;28;70850;-36
2022/10/07 07:32:26;;;;;;;;;;;;;;;32.62;60.89;100610.66;4997971;28;66025;-36
2022/10/07 07:35:03;;;;;;;11.18;5.13;;;;;;;32.84;60.27;100614.38;5007288;28;69867;-36
2022/10/07 07:37:35;;;;;;;12.20;4.32;;;;;;;32.85;60.47;100594.31;5015692;28;66121;-36
2022/10/07 07:40:06;;;;;;;11.05;4.95;;;;;;;32.86;60.30;100584.28;4998518;28;70079;-36
2022/10/07 07:42:37;;;;;;;9.50;4.50;;;;;;;32.85;60.41;100572.59;5001888;28;66452;-36
2022/10/07 07:45:09;;;;;;;15.17;4.40;;;;;;;32.85;60.31;100567.16;5014371;28;70438;-36
2022/10/07 07:47:40;;;;;;;12.30;4.25;;;;;;;32.84;60.18;100564.66;5015670;28;65382;-36
2022/10/07 07:50:12;;;;;;;10.48;4.10;;;;;;;32.84;60.06;100576.34;4999132;28;70522;-36
2022/10/07 07:52:43;;;;;;;10.70;4.40;;;;;;;32.75;60.36;100572.38;4995673;28;67195;-36
2022/10/07 07:55:17;;;;;;;9.70;4.20;;;;;;;32.82;60.26;100572.22;4983073;28;69663;-36
2022/10/07 07:57:48;;;;;;;11.70;4.43;;;;;;;32.81;60.17;100567.88;5010741;28;66753;-36
2022/10/07 08:00:20;;;;;;;8.45;4.07;;;;;;;32.76;60.27;100574.00;5005783;28;69871;-36
2022/10/07 08:03:00;;;;;;;6.00;4.10;;;;;;;32.76;60.43;100573.19;4992843;28;65660;-36
2022/10/07 08:05:34;;;;;;;5.15;3.90;;;;;;;32.14;60.52;100473.34;5000317;28;69877;-37
2022/10/07 08:08:05;;;;;;;9.52;4.20;;;;;;;32.74;60.36;100578.88;5001913;28;65648;-36
2022/10/07 08:10:39;;;;;;;9.95;4.15;;;;;;;32.68;60.71;100566.25;5002844;28;70343;-36
2022/10/07 08:13:11;;;;;;;9.32;4.00;;;;;;;32.67;60.48;100567.31;5001966;28;66738;-35
2022/10/07 08:15:42;;;;;;;7.43;3.47;;;;;;;32.68;60.85;100582.53;5001892;28;70242;-36
2022/10/07 08:18:14;;;;;;;6.53;3.92;;;;;;;32.58;61.00;100566.03;5016264;28;66681;-36
2022/10/07 08:20:56;;;;;;;3.83;3.47;;;;;;;32.52;61.31;100578.69;5012243;28;70071;-36
2022/10/07 08:23:29;;;;;;;8.10;4.32;;;;;;;32.54;60.88;100559.44;4997175;28;65281;-36
2022/10/07 08:26:01;;;;;;;5.88;4.10;;;;;;;32.60;60.97;100564.75;5013231;28;70051;-36
2022/10/07 08:28:33;;;;;;;6.20;3.53;;;;;;;32.60;61.13;100547.63;4991237;28;66172;-36
2022/10/07 08:31:13;;;;;;;5.63;3.78;;;;;;;32.10;61.11;100458.59;5016751;28;70417;-36
2022/10/07 08:33:46;;;;;;;4.00;3.47;;;;;;;32.08;61.16;100455.28;5007764;28;66649;-36
2022/10/07 08:36:21;;;;;;;5.95;4.25;;;;;;;31.67;61.52;100392.81;5017621;28;69987;-36
2022/10/07 08:38:52;;;;;;;7.97;3.97;;;;;;;32.48;61.54;100534.91;5018412;28;66586;-36
2022/10/07 08:41:30;;;;;;;7.37;4.07;;;;;;;32.18;61.71;100507.06;5006972;28;69710;-36
2022/10/07 08:44:41;;;;;;;4.43;3.67;;;;;;;32.43;61.76;100572.78;5016508;28;66309;-36
2022/10/07 08:47:36;;;;;;;6.32;3.90;;;;;;;32.44;61.72;100577.13;5016998;28;70606;-36
2022/10/07 08:50:11;;;;;;;7.65;4.05;;;;;;;32.42;61.65;100568.38;5010054;28;66397;-36
2022/10/07 08:53:00;;;;;;;4.30;3.80;;;;;;;32.37;61.94;100571.00;5017747;28;69866;-36
2022/10/07 08:56:10;;;;;;;8.10;3.90;;;;;;;32.24;62.34;100565.84;5019411;28;66437;-36
2022/10/07 08:59:17;;;;;;;7.70;3.55;;;;;;;32.27;62.36;100576.22;4972637;28;69769;-37
2022/10/07 09:02:25;;;;;;;8.30;4.20;;;;;;;32.26;62.22;100579.97;5019033;28;66704;-35
2022/10/07 09:05:21;;;;;;;5.25;3.65;;;;;;;32.27;62.23;100576.22;5013315;28;70412;-36
2022/10/07 09:07:56;;;;;;;7.47;3.70;;;;;;;32.22;62.17;100551.66;5002494;28;66126;-36
2022/10/07 09:10:33;;;;;;;4.35;3.95;;;;;;;32.32;62.19;100579.03;5018818;28;70198;-37
2022/10/07 09:13:27;;;;;;;10.85;4.65;;;;;;;32.31;62.17;100576.56;4999858;28;66655;-37
2022/10/07 09:16:16;;;;;;;5.07;3.55;;;;;;;32.14;62.05;100549.31;4993955;28;70696;-36
2022/10/07 09:18:52;;;;;;;4.32;3.53;;;;;;;31.73;62.32;100478.66;5008878;28;65903;-36
2022/10/07 09:21:43;;;;;;;4.18;3.83;;;;;;;32.05;63.17;100582.22;5016009;28;69970;-35
2022/10/07 09:24:23;;;;;;;14.80;4.47;;;;;;;31.53;65.32;100530.47;5019467;28;65974;-37
2022/10/07 09:26:59;;;;;;;4.60;4.28;;;;;;;31.30;66.46;100508.72;5017000;28;70090;-35
2022/10/07 09:29:30;;;;;;;5.18;4.68;;;;;;;31.69;66.99;100585.09;5018796;28;66539;-36
2022/10/07 09:32:00;;;;;;;6.07;4.77;;;;;;;31.62;67.85;100590.63;5018424;28;70049;-37
2022/10/07 09:34:32;;;;;;;6.07;4.33;;;;;;;31.54;67.13;100583.66;5017595;28;66227;-36
2022/10/07 09:37:15;;;;;;;5.20;4.70;;;;;;;31.07;68.21;100532.00;5018292;28;70087;-35
2022/10/07 09:39:49;;;;;;;4.70;4.30;;;;;;;31.57;68.96;100604.06;5015991;28;66272;-36
2022/10/07 09:42:25;;;;;;;5.53;4.93;;;;;;;31.54;69.25;100616.19;5018474;28;70239;-36
2022/10/07 09:44:59;;;;;;;6.15;4.68;;;;;;;31.52;68.83;100634.56;5007714;28;65774;-35
2022/10/07 09:47:36;;;;;;;5.63;5.13;;;;;;;31.38;69.17;100612.25;5001295;28;69770;-35
2022/10/07 09:50:45;;;;;;;5.50;5.00;;;;;;;31.44;69.43;100644.91;5015434;28;65818;-35
2022/10/07 09:53:24;;;;;;;13.07;5.85;;;;;;;31.46;69.81;100648.22;4999633;28;70199;-36
2022/10/07 09:55:55;;;;;;;5.45;4.95;;;;;;;31.44;70.05;100653.88;5018136;28;65590;-35
2022/10/07 09:58:28;;;;;;;5.82;5.40;;;;;;;31.44;70.32;100653.88;5017417;28;69699;-35
2022/10/07 10:01:08;;;;;;;7.82;5.63;;;;;;;30.92;70.16;100555.94;5014862;28;66071;-36
2022/10/07 10:03:39;;;;;;;5.82;5.43;;;;;;;31.43;70.25;100646.81;4999827;28;70116;-36
2022/10/07 10:06:11;;;;;;;7.15;6.55;;;;;;;31.38;70.93;100649.38;5018468;28;65964;-35
2022/10/07 10:08:44;;;;;;;11.35;5.88;;;;;;;31.39;70.93;100656.44;5017705;28;70587;-36
2022/10/07 10:11:18;;;;;;;9.30;6.57;;;;;;;31.01;71.31;100588.94;5018149;28;65581;-36
2022/10/07 10:13:50;;;;;;;7.88;6.40;;;;;;;31.01;72.17;100588.94;5018561;28;69508;-35
2022/10/07 10:16:24;;;;;;;7.00;6.28;;;;;;;31.38;72.11;100644.78;5018176;28;66316;-35
2022/10/07 10:19:01;;;;;;;7.10;6.50;;;;;;;30.82;72.56;100558.38;5019777;28;69484;-36
2022/10/07 10:21:39;;;;;;;7.43;6.57;;;;;;;31.39;72.53;100656.44;4999927;28;65141;-36
2022/10/07 10:24:13;;;;;;;8.60;6.60;;;;;;;30.90;72.70;100571.63;5017753;28;69784;-35
2022/10/07 10:27:18;;;;;;;6.80;6.10;;;;;;;31.31;72.47;100664.84;5016768;28;66299;-35
2022/10/07 10:30:03;;;;;;;6.70;6.10;;;;;;;31.36;72.95;100651.47;5006474;28;69928;-35
2022/10/07 10:32:49;;;;;;;6.70;6.20;;;;;;;31.31;73.00;100659.44;5016785;28;65415;-36
2022/10/07 10:35:39;;;;;;;9.43;6.30;;;;;;;31.36;72.97;100667.72;5009538;28;70164;-36
2022/10/07 10:38:31;;;;;;;10.75;6.40;;;;;;;31.26;73.00;100676.38;5014970;28;65688;-37
2022/10/07 10:41:36;;;;;;;6.45;5.95;;;;;;;30.39;73.40;100540.31;4984516;28;69646;-37
2022/10/07 10:44:41;;;;;;;6.20;5.70;;;;;;;31.30;73.41;100682.19;5014498;28;65288;-35
2022/10/07 10:47:40;;;;;;;7.57;5.60;;;;;;;31.15;73.32;100659.00;5016083;28;70505;-35
2022/10/07 10:50:26;;;;;;;6.35;4.97;;;;;;;31.17;73.40;100664.19;5009537;28;66224;-36
2022/10/07 10:53:33;;;;;;;5.55;5.10;;;;;;;31.31;73.06;100675.69;5006654;28;70208;-35
2022/10/07 10:56:21;;;;;;;5.70;4.25;;;;;;;31.34;73.76;100675.22;5001163;28;66418;-35
2022/10/07 10:59:18;;;;;;;6.60;4.55;;;;;;;31.33;73.74;100668.97;5014796;28;69416;-35
2022/10/07 11:02:12;;;;;;;4.90;4.38;;;;;;;31.34;73.26;100678.78;5015738;28;66444;-35
2022/10/07 11:05:03;;;;;;;5.53;4.47;;;;;;;31.31;73.58;100675.69;5017170;28;69905;-36
2022/10/07 11:07:57;;;;;;;4.35;4.05;;;;;;;31.32;73.75;100677.38;5006682;28;66460;-35
2022/10/07 11:10:53;;;;;;;8.70;4.55;;;;;;;30.79;73.44;100600.25;5012458;28;69821;-36
2022/10/07 11:13:37;;;;;;;4.22;3.92;;;;;;;31.33;73.61;100679.00;5006779;28;66117;-35
2022/10/07 11:16:11;;;;;;;4.55;4.15;;;;;;;31.02;73.89;100625.84;5015977;28;69889;-35
2022/10/07 11:18:49;;;;;;;9.48;4.90;;;;;;;31.35;73.86;100679.63;5011072;28;65733;-35
2022/10/07 11:21:31;;;;;;;12.73;4.90;;;;;;;31.35;74.34;100693.16;5009788;28;70364;-37
2022/10/07 11:24:23;;;;;;;5.35;4.70;;;;;;;31.27;74.31;100690.75;5012631;28;67073;-37
2022/10/07 11:27:10;;;;;;;5.25;4.80;;;;;;;31.38;73.52;100701.69;5013509;28;71755;-35
2022/10/07 11:30:08;;;;;;;5.13;4.63;;;;;;;31.46;72.89;100697.84;5015227;28;66594;-37
2022/10/07 11:33:00;;;;;;;4.68;4.07;;;;;;;31.59;71.83;100700.38;4998948;28;70161;-36
2022/10/07 11:35:32;;;;;;;6.03;4.73;;;;;;;31.64;71.10;100718.66;5017837;28;65646;-36
2022/10/07 11:38:09;;;;;;;8.13;4.75;;;;;;;31.70;71.18;100728.56;5018885;28;69829;-37
2022/10/07 11:40:59;;;;;;;5.07;4.68;;;;;;;31.63;71.32;100727.03;5001774;28;67728;-38
2022/10/07 11:43:40;;;;;;;6.18;4.68;;;;;;;31.76;71.26;100740.38;5007854;28;69299;-37
2022/10/07 11:46:20;;;;;;;4.95;4.55;;;;;;;31.76;71.09;100759.38;5018091;28;66553;-36
2022/10/07 11:49:01;;;;;;;6.20;4.57;;;;;;;31.15;70.44;100667.16;5020405;28;69664;-36
2022/10/07 11:51:40;;;;;;;6.07;4.97;;;;;;;31.40;70.54;100706.91;5021278;28;65796;-36
2022/10/07 11:54:16;;;;;;;5.60;4.65;;;;;;;31.40;70.68;100723.16;5020265;28;69823;-36
2022/10/07 11:56:51;;;;;;;4.82;4.43;;;;;;;31.73;70.54;100786.97;5018761;28;65575;-36
2022/10/07 11:59:33;;;;;;;5.32;4.65;;;;;;;31.24;70.58;100707.47;5020520;28;70040;-36
2022/10/07 12:02:05;;;;;;;6.32;5.10;;;;;;;31.80;70.56;100799.38;5018621;28;65711;-36
2022/10/07 12:04:37;;;;;;;5.78;5.32;;;;;;;31.43;70.47;100738.97;5019878;28;70282;-36
2022/10/07 12:07:33;;;;;;;7.22;6.35;;;;;;;31.69;71.09;100812.88;5019237;28;64916;-36
2022/10/07 12:10:04;;;;;;;7.65;6.57;;;;;;;31.79;70.49;100813.19;5019632;28;69701;-36
2022/10/07 12:12:45;;;;;;;7.97;7.22;;;;;;;31.81;70.40;100816.47;5017414;28;66264;-36
2022/10/07 12:15:23;;;;;;;8.00;7.50;;;;;;;31.79;70.55;100824.88;5020860;28;69335;-36
2022/10/07 12:18:03;;;;;;;8.75;7.78;;;;;;;31.26;70.88;100754.13;5018064;28;66156;-38
2022/10/07 12:20:45;;;;;;;8.82;7.93;;;;;;;31.80;70.50;100852.81;5002311;28;69156;-36